Terminal Aerodrome Forecast
Issued by NWS

Home | Current Version | Previous Version | Text Only | Print | Product List | Glossary On
Versions: 1 2 3 4 5 6 7 8 9 10 11 12 13 14 15 16 17 18 19 20 21 22 23 24 25 26 27 28 29 30 31 32 33 34 35 36 37 38 39 40 41 42 43 44 45 46 47 48 49 50
000
FTUS43 KMKX 312334
TAFENW
TAF
KENW 312334Z 0100/0124 14004KT 6SM HZ BKN250
     FM010300 17003KT 4SM BR BKN250
     FM010500 19004KT 2SM BR FEW015 BKN250
      TEMPO 0105/0108 1/2SM FG SCT015
     FM010800 19003KT 3/4SM BR BKN250
      TEMPO 0108/0112 1/4SM FG SCT004
     FM011300 20006KT 3SM BR BKN250
     FM011400 21008KT P6SM SCT020 BKN250
     FM011800 18010KT P6SM SCT030 BKN250=

USA.gov is the U.S. government's official web portal to all federal, state and local government web resources and services.